sensor_id;sensor_type;location;lat;lon;timestamp;temperature;humidity
19359;DHT22;9815;52.334;20.890;2023-08-30T00:00:02;19.00;99.90
19359;DHT22;9815;52.334;20.890;2023-08-30T00:02:32;19.00;99.90
19359;DHT22;9815;52.334;20.890;2023-08-30T00:05:02;19.00;99.90
19359;DHT22;9815;52.334;20.890;2023-08-30T00:07:30;19.00;99.90
19359;DHT22;9815;52.334;20.890;2023-08-30T00:09:59;18.90;99.90
19359;DHT22;9815;52.334;20.890;2023-08-30T00:12:29;18.90;99.90
19359;DHT22;9815;52.334;20.890;2023-08-30T00:14:57;18.90;99.90
19359;DHT22;9815;52.334;20.890;2023-08-30T00:17:25;18.90;99.90
19359;DHT22;9815;52.334;20.890;2023-08-30T00:19:53;18.90;99.90
19359;DHT22;9815;52.334;20.890;2023-08-30T00:22:22;18.90;99.90
19359;DHT22;9815;52.334;20.890;2023-08-30T00:24:51;18.90;99.90
19359;DHT22;9815;52.334;20.890;2023-08-30T00:27:19;18.80;99.90
19359;DHT22;9815;52.334;20.890;2023-08-30T00:29:49;18.80;99.90
19359;DHT22;9815;52.334;20.890;2023-08-30T00:32:17;18.80;99.90
19359;DHT22;9815;52.334;20.890;2023-08-30T00:34:45;18.80;99.90
19359;DHT22;9815;52.334;20.890;2023-08-30T00:37:14;18.80;99.90
19359;DHT22;9815;52.334;20.890;2023-08-30T00:39:42;18.80;99.90
19359;DHT22;9815;52.334;20.890;2023-08-30T00:42:10;18.70;99.90
19359;DHT22;9815;52.334;20.890;2023-08-30T00:44:38;18.70;99.90
19359;DHT22;9815;52.334;20.890;2023-08-30T00:47:09;18.70;99.90
19359;DHT22;9815;52.334;20.890;2023-08-30T00:49:38;18.60;99.90
19359;DHT22;9815;52.334;20.890;2023-08-30T00:52:08;18.60;99.90
19359;DHT22;9815;52.334;20.890;2023-08-30T00:54:38;18.60;99.90
19359;DHT22;9815;52.334;20.890;2023-08-30T00:57:07;18.50;99.90
19359;DHT22;9815;52.334;20.890;2023-08-30T00:59:37;18.50;99.90
19359;DHT22;9815;52.334;20.890;2023-08-30T01:02:05;18.50;99.90
19359;DHT22;9815;52.334;20.890;2023-08-30T01:04:35;18.50;99.90
19359;DHT22;9815;52.334;20.890;2023-08-30T01:07:03;18.50;99.90
19359;DHT22;9815;52.334;20.890;2023-08-30T01:09:33;18.40;99.90
19359;DHT22;9815;52.334;20.890;2023-08-30T01:12:07;18.40;99.90
19359;DHT22;9815;52.334;20.890;2023-08-30T01:14:45;18.50;99.90
19359;DHT22;9815;52.334;20.890;2023-08-30T01:17:21;18.40;99.90
19359;DHT22;9815;52.334;20.890;2023-08-30T01:19:54;18.40;99.90
19359;DHT22;9815;52.334;20.890;2023-08-30T01:22:38;18.40;99.90
19359;DHT22;9815;52.334;20.890;2023-08-30T01:25:17;18.40;99.90
19359;DHT22;9815;52.334;20.890;2023-08-30T01:27:51;18.30;99.90
19359;DHT22;9815;52.334;20.890;2023-08-30T01:30:20;18.30;99.90
19359;DHT22;9815;52.334;20.890;2023-08-30T01:32:50;18.20;99.90
19359;DHT22;9815;52.334;20.890;2023-08-30T01:35:19;18.20;99.90
19359;DHT22;9815;52.334;20.890;2023-08-30T01:37:49;18.20;99.90
19359;DHT22;9815;52.334;20.890;2023-08-30T01:40:18;18.10;99.90
19359;DHT22;9815;52.334;20.890;2023-08-30T01:42:50;18.00;99.90
19359;DHT22;9815;52.334;20.890;2023-08-30T01:45:20;18.00;99.90
19359;DHT22;9815;52.334;20.890;2023-08-30T01:47:51;18.00;99.90
19359;DHT22;9815;52.334;20.890;2023-08-30T01:50:21;18.00;99.90
19359;DHT22;9815;52.334;20.890;2023-08-30T01:52:50;17.90;99.90
19359;DHT22;9815;52.334;20.890;2023-08-30T01:55:20;17.90;99.90
19359;DHT22;9815;52.334;20.890;2023-08-30T01:57:50;17.90;99.90
19359;DHT22;9815;52.334;20.890;2023-08-30T02:00:19;17.90;99.90
19359;DHT22;9815;52.334;20.890;2023-08-30T02:02:48;17.90;99.90
19359;DHT22;9815;52.334;20.890;2023-08-30T02:05:16;17.90;99.90
19359;DHT22;9815;52.334;20.890;2023-08-30T02:07:51;17.90;99.90
19359;DHT22;9815;52.334;20.890;2023-08-30T02:10:25;17.90;99.90
19359;DHT22;9815;52.334;20.890;2023-08-30T02:12:59;17.90;99.90
19359;DHT22;9815;52.334;20.890;2023-08-30T02:15:31;17.90;99.90
19359;DHT22;9815;52.334;20.890;2023-08-30T02:18:01;17.90;99.90
19359;DHT22;9815;52.334;20.890;2023-08-30T02:20:33;17.90;99.90
19359;DHT22;9815;52.334;20.890;2023-08-30T02:23:01;17.90;99.90
19359;DHT22;9815;52.334;20.890;2023-08-30T02:25:41;17.90;99.90
19359;DHT22;9815;52.334;20.890;2023-08-30T02:28:10;17.90;99.90
19359;DHT22;9815;52.334;20.890;2023-08-30T02:30:39;17.90;99.90
19359;DHT22;9815;52.334;20.890;2023-08-30T02:33:08;17.80;99.90
19359;DHT22;9815;52.334;20.890;2023-08-30T02:35:37;17.80;99.90
19359;DHT22;9815;52.334;20.890;2023-08-30T02:38:05;17.80;99.90
19359;DHT22;9815;52.334;20.890;2023-08-30T02:40:34;17.80;99.90
19359;DHT22;9815;52.334;20.890;2023-08-30T02:43:03;17.80;99.90
19359;DHT22;9815;52.334;20.890;2023-08-30T02:45:32;17.80;99.90
19359;DHT22;9815;52.334;20.890;2023-08-30T02:48:01;17.70;99.90
19359;DHT22;9815;52.334;20.890;2023-08-30T02:50:30;17.70;99.90
19359;DHT22;9815;52.334;20.890;2023-08-30T02:52:58;17.70;99.90
19359;DHT22;9815;52.334;20.890;2023-08-30T02:55:27;17.70;99.90
19359;DHT22;9815;52.334;20.890;2023-08-30T02:57:55;17.70;99.90
19359;DHT22;9815;52.334;20.890;2023-08-30T03:00:23;17.60;99.90
19359;DHT22;9815;52.334;20.890;2023-08-30T03:02:53;17.50;99.90
19359;DHT22;9815;52.334;20.890;2023-08-30T03:05:21;17.50;99.90
19359;DHT22;9815;52.334;20.890;2023-08-30T03:07:50;17.50;99.90
19359;DHT22;9815;52.334;20.890;2023-08-30T03:10:20;17.40;99.90
19359;DHT22;9815;52.334;20.890;2023-08-30T03:12:48;17.40;99.90
19359;DHT22;9815;52.334;20.890;2023-08-30T03:15:18;17.50;99.90
19359;DHT22;9815;52.334;20.890;2023-08-30T03:17:46;17.50;99.90
19359;DHT22;9815;52.334;20.890;2023-08-30T03:20:16;17.40;99.90
19359;DHT22;9815;52.334;20.890;2023-08-30T03:22:44;17.40;99.90
19359;DHT22;9815;52.334;20.890;2023-08-30T03:25:13;17.40;99.90
19359;DHT22;9815;52.334;20.890;2023-08-30T03:27:43;17.40;99.90
19359;DHT22;9815;52.334;20.890;2023-08-30T03:30:12;17.40;99.90
19359;DHT22;9815;52.334;20.890;2023-08-30T03:32:42;17.40;99.90
19359;DHT22;9815;52.334;20.890;2023-08-30T03:35:10;17.40;99.90
19359;DHT22;9815;52.334;20.890;2023-08-30T03:37:40;17.40;99.90
19359;DHT22;9815;52.334;20.890;2023-08-30T03:40:09;17.40;99.90
19359;DHT22;9815;52.334;20.890;2023-08-30T03:42:37;17.30;99.90
19359;DHT22;9815;52.334;20.890;2023-08-30T03:45:07;17.30;99.90
19359;DHT22;9815;52.334;20.890;2023-08-30T03:47:35;17.30;99.90
19359;DHT22;9815;52.334;20.890;2023-08-30T03:50:05;17.20;99.90
19359;DHT22;9815;52.334;20.890;2023-08-30T03:52:34;17.20;99.90
19359;DHT22;9815;52.334;20.890;2023-08-30T03:55:04;17.20;99.90
19359;DHT22;9815;52.334;20.890;2023-08-30T03:57:33;17.20;99.90
19359;DHT22;9815;52.334;20.890;2023-08-30T04:00:02;17.20;99.90
19359;DHT22;9815;52.334;20.890;2023-08-30T04:02:39;17.20;99.90
19359;DHT22;9815;52.334;20.890;2023-08-30T04:05:08;17.10;99.90
19359;DHT22;9815;52.334;20.890;2023-08-30T04:07:37;17.10;99.90
19359;DHT22;9815;52.334;20.890;2023-08-30T04:10:08;17.00;99.90
19359;DHT22;9815;52.334;20.890;2023-08-30T04:12:36;17.10;99.90
19359;DHT22;9815;52.334;20.890;2023-08-30T04:15:05;17.10;99.90
19359;DHT22;9815;52.334;20.890;2023-08-30T04:17:34;17.10;99.90
19359;DHT22;9815;52.334;20.890;2023-08-30T04:20:02;17.20;99.90
19359;DHT22;9815;52.334;20.890;2023-08-30T04:22:33;17.10;99.90
19359;DHT22;9815;52.334;20.890;2023-08-30T04:25:03;17.20;99.90
19359;DHT22;9815;52.334;20.890;2023-08-30T04:27:33;17.20;99.90
19359;DHT22;9815;52.334;20.890;2023-08-30T04:30:02;17.30;99.90
19359;DHT22;9815;52.334;20.890;2023-08-30T04:32:30;17.20;99.90
19359;DHT22;9815;52.334;20.890;2023-08-30T04:34:58;17.30;99.90
19359;DHT22;9815;52.334;20.890;2023-08-30T04:37:30;17.20;99.90
19359;DHT22;9815;52.334;20.890;2023-08-30T04:39:59;17.30;99.90
19359;DHT22;9815;52.334;20.890;2023-08-30T04:42:27;17.30;99.90
19359;DHT22;9815;52.334;20.890;2023-08-30T04:44:57;17.20;99.90
19359;DHT22;9815;52.334;20.890;2023-08-30T04:47:28;17.20;99.90
19359;DHT22;9815;52.334;20.890;2023-08-30T04:49:57;17.30;99.90
19359;DHT22;9815;52.334;20.890;2023-08-30T04:52:26;17.20;99.90
19359;DHT22;9815;52.334;20.890;2023-08-30T04:54:56;17.20;99.90
19359;DHT22;9815;52.334;20.890;2023-08-30T04:57:26;17.20;99.90
19359;DHT22;9815;52.334;20.890;2023-08-30T04:59:56;17.20;99.90
19359;DHT22;9815;52.334;20.890;2023-08-30T05:02:25;17.20;99.90
19359;DHT22;9815;52.334;20.890;2023-08-30T05:05:00;17.30;99.90
19359;DHT22;9815;52.334;20.890;2023-08-30T05:07:30;17.30;99.90
19359;DHT22;9815;52.334;20.890;2023-08-30T05:09:58;17.20;99.90
19359;DHT22;9815;52.334;20.890;2023-08-30T05:12:26;17.30;99.90
19359;DHT22;9815;52.334;20.890;2023-08-30T05:14:56;17.30;99.90
19359;DHT22;9815;52.334;20.890;2023-08-30T05:17:27;17.20;99.90
19359;DHT22;9815;52.334;20.890;2023-08-30T05:19:57;17.20;99.90
19359;DHT22;9815;52.334;20.890;2023-08-30T05:22:25;17.30;99.90
19359;DHT22;9815;52.334;20.890;2023-08-30T05:24:54;17.30;99.90
19359;DHT22;9815;52.334;20.890;2023-08-30T05:27:22;17.30;99.90
19359;DHT22;9815;52.334;20.890;2023-08-30T05:29:51;17.30;99.90
19359;DHT22;9815;52.334;20.890;2023-08-30T05:32:21;17.40;99.90
19359;DHT22;9815;52.334;20.890;2023-08-30T05:35:05;17.40;99.90
19359;DHT22;9815;52.334;20.890;2023-08-30T05:37:59;17.30;99.90
19359;DHT22;9815;52.334;20.890;2023-08-30T05:40:38;17.40;99.90
19359;DHT22;9815;52.334;20.890;2023-08-30T05:43:09;17.40;99.90
19359;DHT22;9815;52.334;20.890;2023-08-30T05:45:37;17.40;99.90
19359;DHT22;9815;52.334;20.890;2023-08-30T05:48:09;17.40;99.90
19359;DHT22;9815;52.334;20.890;2023-08-30T05:50:37;17.40;99.90
19359;DHT22;9815;52.334;20.890;2023-08-30T05:53:07;17.40;99.90
19359;DHT22;9815;52.334;20.890;2023-08-30T05:55:35;17.40;99.90
19359;DHT22;9815;52.334;20.890;2023-08-30T05:58:05;17.50;99.90
19359;DHT22;9815;52.334;20.890;2023-08-30T06:00:34;17.50;99.90
19359;DHT22;9815;52.334;20.890;2023-08-30T06:03:03;17.40;99.90
19359;DHT22;9815;52.334;20.890;2023-08-30T06:05:33;17.40;99.90
19359;DHT22;9815;52.334;20.890;2023-08-30T06:08:01;17.40;99.90
19359;DHT22;9815;52.334;20.890;2023-08-30T06:10:30;17.50;99.90
19359;DHT22;9815;52.334;20.890;2023-08-30T06:12:58;17.50;99.90
19359;DHT22;9815;52.334;20.890;2023-08-30T06:15:26;17.40;99.90
19359;DHT22;9815;52.334;20.890;2023-08-30T06:17:55;17.40;99.90
19359;DHT22;9815;52.334;20.890;2023-08-30T06:20:23;17.50;99.90
19359;DHT22;9815;52.334;20.890;2023-08-30T06:22:52;17.40;99.90
19359;DHT22;9815;52.334;20.890;2023-08-30T06:25:21;17.40;99.90
19359;DHT22;9815;52.334;20.890;2023-08-30T06:27:56;17.40;99.90
19359;DHT22;9815;52.334;20.890;2023-08-30T06:30:26;17.40;99.90
19359;DHT22;9815;52.334;20.890;2023-08-30T06:32:54;17.40;99.90
19359;DHT22;9815;52.334;20.890;2023-08-30T06:35:23;17.50;99.90
19359;DHT22;9815;52.334;20.890;2023-08-30T06:37:52;17.50;99.90
19359;DHT22;9815;52.334;20.890;2023-08-30T06:40:22;17.50;99.90
19359;DHT22;9815;52.334;20.890;2023-08-30T06:42:51;17.50;99.90
19359;DHT22;9815;52.334;20.890;2023-08-30T06:45:19;17.40;99.90
19359;DHT22;9815;52.334;20.890;2023-08-30T06:47:48;17.40;99.90
19359;DHT22;9815;52.334;20.890;2023-08-30T06:50:17;17.50;99.90
19359;DHT22;9815;52.334;20.890;2023-08-30T06:52:45;17.50;99.90
19359;DHT22;9815;52.334;20.890;2023-08-30T06:55:15;17.50;99.90
19359;DHT22;9815;52.334;20.890;2023-08-30T06:57:48;17.50;99.90
19359;DHT22;9815;52.334;20.890;2023-08-30T07:00:18;17.50;99.90
19359;DHT22;9815;52.334;20.890;2023-08-30T07:02:46;17.50;99.90
19359;DHT22;9815;52.334;20.890;2023-08-30T07:05:15;17.50;99.90
19359;DHT22;9815;52.334;20.890;2023-08-30T07:07:44;17.50;99.90
19359;DHT22;9815;52.334;20.890;2023-08-30T07:10:12;17.60;99.90
19359;DHT22;9815;52.334;20.890;2023-08-30T07:12:42;17.60;99.90
19359;DHT22;9815;52.334;20.890;2023-08-30T07:15:13;17.70;99.90
19359;DHT22;9815;52.334;20.890;2023-08-30T07:17:43;17.60;99.90
19359;DHT22;9815;52.334;20.890;2023-08-30T07:20:20;17.60;99.90
19359;DHT22;9815;52.334;20.890;2023-08-30T07:22:48;17.60;99.90
19359;DHT22;9815;52.334;20.890;2023-08-30T07:25:17;17.70;99.90
19359;DHT22;9815;52.334;20.890;2023-08-30T07:27:46;17.70;99.90
19359;DHT22;9815;52.334;20.890;2023-08-30T07:30:15;17.60;99.90
19359;DHT22;9815;52.334;20.890;2023-08-30T07:32:43;17.60;99.90
19359;DHT22;9815;52.334;20.890;2023-08-30T07:35:11;17.60;99.90
19359;DHT22;9815;52.334;20.890;2023-08-30T07:37:41;17.60;99.90
19359;DHT22;9815;52.334;20.890;2023-08-30T07:40:10;17.60;99.90
19359;DHT22;9815;52.334;20.890;2023-08-30T07:42:39;17.70;99.90
19359;DHT22;9815;52.334;20.890;2023-08-30T07:45:09;17.60;99.90
19359;DHT22;9815;52.334;20.890;2023-08-30T07:47:37;17.60;99.90
19359;DHT22;9815;52.334;20.890;2023-08-30T07:50:07;17.60;99.90
19359;DHT22;9815;52.334;20.890;2023-08-30T07:52:35;17.60;99.90
19359;DHT22;9815;52.334;20.890;2023-08-30T07:55:13;17.60;99.90
19359;DHT22;9815;52.334;20.890;2023-08-30T07:57:42;17.60;99.90
19359;DHT22;9815;52.334;20.890;2023-08-30T08:00:13;17.60;99.90
19359;DHT22;9815;52.334;20.890;2023-08-30T08:02:44;17.50;99.90
19359;DHT22;9815;52.334;20.890;2023-08-30T08:05:12;17.60;99.90
19359;DHT22;9815;52.334;20.890;2023-08-30T08:07:42;17.60;99.90
19359;DHT22;9815;52.334;20.890;2023-08-30T08:10:11;17.50;99.90
19359;DHT22;9815;52.334;20.890;2023-08-30T08:12:39;17.40;99.90
19359;DHT22;9815;52.334;20.890;2023-08-30T08:15:08;17.40;99.90
19359;DHT22;9815;52.334;20.890;2023-08-30T08:17:40;17.40;99.90
19359;DHT22;9815;52.334;20.890;2023-08-30T08:20:09;17.50;99.90
19359;DHT22;9815;52.334;20.890;2023-08-30T08:22:37;17.50;99.90
19359;DHT22;9815;52.334;20.890;2023-08-30T08:25:06;17.40;99.90
19359;DHT22;9815;52.334;20.890;2023-08-30T08:27:37;17.30;99.90
19359;DHT22;9815;52.334;20.890;2023-08-30T08:30:06;17.20;99.90
19359;DHT22;9815;52.334;20.890;2023-08-30T08:32:35;17.30;99.90
19359;DHT22;9815;52.334;20.890;2023-08-30T08:35:05;17.30;99.90
19359;DHT22;9815;52.334;20.890;2023-08-30T08:37:34;17.20;99.90
19359;DHT22;9815;52.334;20.890;2023-08-30T08:40:03;17.20;99.90
19359;DHT22;9815;52.334;20.890;2023-08-30T08:42:36;17.20;99.90
19359;DHT22;9815;52.334;20.890;2023-08-30T08:45:05;17.20;99.90
19359;DHT22;9815;52.334;20.890;2023-08-30T08:47:35;17.20;99.90
19359;DHT22;9815;52.334;20.890;2023-08-30T08:50:06;17.20;99.90
19359;DHT22;9815;52.334;20.890;2023-08-30T08:52:34;17.30;99.90
19359;DHT22;9815;52.334;20.890;2023-08-30T08:55:23;17.20;99.90
19359;DHT22;9815;52.334;20.890;2023-08-30T08:57:53;17.10;99.90
19359;DHT22;9815;52.334;20.890;2023-08-30T09:00:22;17.10;99.90
19359;DHT22;9815;52.334;20.890;2023-08-30T09:02:50;17.20;99.90
19359;DHT22;9815;52.334;20.890;2023-08-30T09:05:20;17.20;99.90
19359;DHT22;9815;52.334;20.890;2023-08-30T09:07:50;17.10;99.90
19359;DHT22;9815;52.334;20.890;2023-08-30T09:10:21;17.00;99.90
19359;DHT22;9815;52.334;20.890;2023-08-30T09:12:49;17.00;99.90
19359;DHT22;9815;52.334;20.890;2023-08-30T09:15:17;17.10;99.90
19359;DHT22;9815;52.334;20.890;2023-08-30T09:17:48;17.10;99.90
19359;DHT22;9815;52.334;20.890;2023-08-30T09:20:16;17.20;99.90
19359;DHT22;9815;52.334;20.890;2023-08-30T09:22:48;17.20;99.90
19359;DHT22;9815;52.334;20.890;2023-08-30T09:25:23;17.20;99.90
19359;DHT22;9815;52.334;20.890;2023-08-30T09:27:57;17.30;99.90
19359;DHT22;9815;52.334;20.890;2023-08-30T09:30:26;17.30;99.90
19359;DHT22;9815;52.334;20.890;2023-08-30T09:33:01;17.30;99.90
19359;DHT22;9815;52.334;20.890;2023-08-30T09:35:29;17.30;99.90
19359;DHT22;9815;52.334;20.890;2023-08-30T09:38:00;17.30;99.90
19359;DHT22;9815;52.334;20.890;2023-08-30T09:40:28;17.30;99.90
19359;DHT22;9815;52.334;20.890;2023-08-30T09:42:58;17.30;99.90
19359;DHT22;9815;52.334;20.890;2023-08-30T09:45:39;17.40;99.90
19359;DHT22;9815;52.334;20.890;2023-08-30T09:48:08;17.40;99.90
19359;DHT22;9815;52.334;20.890;2023-08-30T09:50:37;17.30;99.90
19359;DHT22;9815;52.334;20.890;2023-08-30T09:53:09;17.30;99.90
19359;DHT22;9815;52.334;20.890;2023-08-30T09:55:40;17.30;99.90
19359;DHT22;9815;52.334;20.890;2023-08-30T09:58:10;17.30;99.90
19359;DHT22;9815;52.334;20.890;2023-08-30T10:00:42;17.30;99.90
19359;DHT22;9815;52.334;20.890;2023-08-30T10:03:11;17.20;99.90
19359;DHT22;9815;52.334;20.890;2023-08-30T10:05:56;17.30;99.90
19359;DHT22;9815;52.334;20.890;2023-08-30T10:08:29;17.30;99.90
19359;DHT22;9815;52.334;20.890;2023-08-30T10:10:58;17.30;99.90
19359;DHT22;9815;52.334;20.890;2023-08-30T10:13:29;17.30;99.90
19359;DHT22;9815;52.334;20.890;2023-08-30T10:16:00;17.40;99.90
19359;DHT22;9815;52.334;20.890;2023-08-30T10:18:38;17.40;99.90
19359;DHT22;9815;52.334;20.890;2023-08-30T10:21:29;17.40;99.90
19359;DHT22;9815;52.334;20.890;2023-08-30T10:24:03;17.40;99.90
19359;DHT22;9815;52.334;20.890;2023-08-30T10:26:56;17.40;99.90
19359;DHT22;9815;52.334;20.890;2023-08-30T10:29:27;17.40;99.90
19359;DHT22;9815;52.334;20.890;2023-08-30T10:32:01;17.50;99.90
19359;DHT22;9815;52.334;20.890;2023-08-30T10:34:33;17.40;99.90
19359;DHT22;9815;52.334;20.890;2023-08-30T10:37:06;17.40;99.90
19359;DHT22;9815;52.334;20.890;2023-08-30T10:39:37;17.40;99.90
19359;DHT22;9815;52.334;20.890;2023-08-30T10:42:09;17.60;99.90
19359;DHT22;9815;52.334;20.890;2023-08-30T10:44:47;17.50;99.90
19359;DHT22;9815;52.334;20.890;2023-08-30T10:47:38;17.50;99.90
19359;DHT22;9815;52.334;20.890;2023-08-30T10:50:08;17.60;99.90
19359;DHT22;9815;52.334;20.890;2023-08-30T10:52:38;17.60;99.90
19359;DHT22;9815;52.334;20.890;2023-08-30T10:55:09;17.70;99.90
19359;DHT22;9815;52.334;20.890;2023-08-30T10:57:41;17.70;99.90
19359;DHT22;9815;52.334;20.890;2023-08-30T11:00:12;17.70;99.90
19359;DHT22;9815;52.334;20.890;2023-08-30T11:02:48;17.60;99.90
19359;DHT22;9815;52.334;20.890;2023-08-30T11:05:18;17.70;99.90
19359;DHT22;9815;52.334;20.890;2023-08-30T11:07:47;17.80;99.90
19359;DHT22;9815;52.334;20.890;2023-08-30T11:10:19;17.90;99.90
19359;DHT22;9815;52.334;20.890;2023-08-30T11:12:49;18.00;99.90
19359;DHT22;9815;52.334;20.890;2023-08-30T11:15:17;18.00;99.90
19359;DHT22;9815;52.334;20.890;2023-08-30T11:17:48;18.10;99.90
19359;DHT22;9815;52.334;20.890;2023-08-30T11:20:16;18.00;99.90
19359;DHT22;9815;52.334;20.890;2023-08-30T11:22:48;18.00;99.90
19359;DHT22;9815;52.334;20.890;2023-08-30T11:25:16;18.00;99.90
19359;DHT22;9815;52.334;20.890;2023-08-30T11:27:47;17.90;99.90
19359;DHT22;9815;52.334;20.890;2023-08-30T11:30:15;18.00;99.90
19359;DHT22;9815;52.334;20.890;2023-08-30T11:32:46;18.00;99.90
19359;DHT22;9815;52.334;20.890;2023-08-30T11:35:16;18.00;99.90
19359;DHT22;9815;52.334;20.890;2023-08-30T11:37:44;18.00;99.90
19359;DHT22;9815;52.334;20.890;2023-08-30T11:40:13;18.10;99.90
19359;DHT22;9815;52.334;20.890;2023-08-30T11:42:43;18.10;99.90
19359;DHT22;9815;52.334;20.890;2023-08-30T11:45:14;18.10;99.90
19359;DHT22;9815;52.334;20.890;2023-08-30T11:47:43;18.10;99.90
19359;DHT22;9815;52.334;20.890;2023-08-30T11:50:12;18.10;99.90
19359;DHT22;9815;52.334;20.890;2023-08-30T11:52:41;18.20;99.90
19359;DHT22;9815;52.334;20.890;2023-08-30T11:55:09;18.30;99.90
19359;DHT22;9815;52.334;20.890;2023-08-30T11:57:39;18.30;99.90
19359;DHT22;9815;52.334;20.890;2023-08-30T12:00:14;18.30;99.90
19359;DHT22;9815;52.334;20.890;2023-08-30T12:02:43;18.20;99.90
19359;DHT22;9815;52.334;20.890;2023-08-30T12:05:12;18.10;99.90
19359;DHT22;9815;52.334;20.890;2023-08-30T12:07:41;18.20;99.90
19359;DHT22;9815;52.334;20.890;2023-08-30T12:10:11;18.20;99.90
19359;DHT22;9815;52.334;20.890;2023-08-30T12:12:44;18.30;99.90
19359;DHT22;9815;52.334;20.890;2023-08-30T12:15:15;18.40;99.90
19359;DHT22;9815;52.334;20.890;2023-08-30T12:17:44;18.40;99.90
19359;DHT22;9815;52.334;20.890;2023-08-30T12:20:16;18.40;99.90
19359;DHT22;9815;52.334;20.890;2023-08-30T12:22:47;18.40;99.90
19359;DHT22;9815;52.334;20.890;2023-08-30T12:25:22;18.30;99.90
19359;DHT22;9815;52.334;20.890;2023-08-30T12:27:51;18.30;99.90
19359;DHT22;9815;52.334;20.890;2023-08-30T12:30:21;18.30;99.90
19359;DHT22;9815;52.334;20.890;2023-08-30T12:33:00;18.30;99.90
19359;DHT22;9815;52.334;20.890;2023-08-30T12:35:29;18.30;99.90
19359;DHT22;9815;52.334;20.890;2023-08-30T12:37:59;18.30;99.90
19359;DHT22;9815;52.334;20.890;2023-08-30T12:40:28;18.30;99.90
19359;DHT22;9815;52.334;20.890;2023-08-30T12:42:56;18.20;99.90
19359;DHT22;9815;52.334;20.890;2023-08-30T12:45:25;18.20;99.90
19359;DHT22;9815;52.334;20.890;2023-08-30T12:47:54;18.10;99.90
19359;DHT22;9815;52.334;20.890;2023-08-30T12:50:22;18.10;99.90
19359;DHT22;9815;52.334;20.890;2023-08-30T12:52:50;18.10;99.90
19359;DHT22;9815;52.334;20.890;2023-08-30T12:55:19;18.20;99.90
19359;DHT22;9815;52.334;20.890;2023-08-30T12:57:47;18.30;99.90
19359;DHT22;9815;52.334;20.890;2023-08-30T13:00:15;18.30;99.90
19359;DHT22;9815;52.334;20.890;2023-08-30T13:02:45;18.30;99.90
19359;DHT22;9815;52.334;20.890;2023-08-30T13:05:13;18.20;99.90
19359;DHT22;9815;52.334;20.890;2023-08-30T13:07:42;18.20;99.90
19359;DHT22;9815;52.334;20.890;2023-08-30T13:10:10;18.20;99.90
19359;DHT22;9815;52.334;20.890;2023-08-30T13:12:39;18.20;99.90
19359;DHT22;9815;52.334;20.890;2023-08-30T13:15:10;18.20;99.90
19359;DHT22;9815;52.334;20.890;2023-08-30T13:17:38;18.20;99.90
19359;DHT22;9815;52.334;20.890;2023-08-30T13:20:09;18.20;99.90
19359;DHT22;9815;52.334;20.890;2023-08-30T13:22:38;18.20;99.90
19359;DHT22;9815;52.334;20.890;2023-08-30T13:25:07;18.10;99.90
19359;DHT22;9815;52.334;20.890;2023-08-30T13:27:35;18.10;99.90
19359;DHT22;9815;52.334;20.890;2023-08-30T13:30:04;18.20;99.90
19359;DHT22;9815;52.334;20.890;2023-08-30T13:32:33;18.20;99.90
19359;DHT22;9815;52.334;20.890;2023-08-30T13:35:02;18.20;99.90
19359;DHT22;9815;52.334;20.890;2023-08-30T13:37:32;18.30;99.90
19359;DHT22;9815;52.334;20.890;2023-08-30T13:40:00;18.50;99.90
19359;DHT22;9815;52.334;20.890;2023-08-30T13:42:32;18.50;99.90
19359;DHT22;9815;52.334;20.890;2023-08-30T13:45:02;18.50;99.90
19359;DHT22;9815;52.334;20.890;2023-08-30T13:47:31;18.50;99.90
19359;DHT22;9815;52.334;20.890;2023-08-30T13:50:00;18.40;99.90
19359;DHT22;9815;52.334;20.890;2023-08-30T13:52:28;18.40;99.90
19359;DHT22;9815;52.334;20.890;2023-08-30T13:54:58;18.40;99.90
19359;DHT22;9815;52.334;20.890;2023-08-30T13:57:27;18.40;99.90
19359;DHT22;9815;52.334;20.890;2023-08-30T13:59:55;18.40;99.90
19359;DHT22;9815;52.334;20.890;2023-08-30T14:02:23;18.30;99.90
19359;DHT22;9815;52.334;20.890;2023-08-30T14:04:53;18.30;99.90
19359;DHT22;9815;52.334;20.890;2023-08-30T14:07:21;18.30;99.90
19359;DHT22;9815;52.334;20.890;2023-08-30T14:09:49;18.20;99.90
19359;DHT22;9815;52.334;20.890;2023-08-30T14:12:19;18.20;99.90
19359;DHT22;9815;52.334;20.890;2023-08-30T14:14:47;18.30;99.90
19359;DHT22;9815;52.334;20.890;2023-08-30T14:17:15;18.40;99.90
19359;DHT22;9815;52.334;20.890;2023-08-30T14:19:46;18.60;99.90
19359;DHT22;9815;52.334;20.890;2023-08-30T14:22:14;18.60;99.90
19359;DHT22;9815;52.334;20.890;2023-08-30T14:24:43;18.60;99.90
19359;DHT22;9815;52.334;20.890;2023-08-30T14:27:30;18.70;99.90
19359;DHT22;9815;52.334;20.890;2023-08-30T14:29:58;18.70;99.90
19359;DHT22;9815;52.334;20.890;2023-08-30T14:32:27;18.70;99.90
19359;DHT22;9815;52.334;20.890;2023-08-30T14:34:55;18.50;99.90
19359;DHT22;9815;52.334;20.890;2023-08-30T14:37:24;18.50;99.90
19359;DHT22;9815;52.334;20.890;2023-08-30T14:39:53;18.50;99.90
19359;DHT22;9815;52.334;20.890;2023-08-30T14:42:21;18.50;99.90
19359;DHT22;9815;52.334;20.890;2023-08-30T14:44:51;18.60;99.90
19359;DHT22;9815;52.334;20.890;2023-08-30T14:47:20;18.60;99.90
19359;DHT22;9815;52.334;20.890;2023-08-30T14:49:49;18.70;99.90
19359;DHT22;9815;52.334;20.890;2023-08-30T14:52:18;18.70;99.90
19359;DHT22;9815;52.334;20.890;2023-08-30T14:54:46;18.70;99.90
19359;DHT22;9815;52.334;20.890;2023-08-30T14:57:15;18.70;99.90
19359;DHT22;9815;52.334;20.890;2023-08-30T14:59:43;18.70;99.90
19359;DHT22;9815;52.334;20.890;2023-08-30T15:02:13;18.60;99.90
19359;DHT22;9815;52.334;20.890;2023-08-30T15:04:42;18.50;99.90
19359;DHT22;9815;52.334;20.890;2023-08-30T15:07:10;18.50;99.90
19359;DHT22;9815;52.334;20.890;2023-08-30T15:09:38;18.50;99.90
19359;DHT22;9815;52.334;20.890;2023-08-30T15:12:07;18.50;99.90
19359;DHT22;9815;52.334;20.890;2023-08-30T15:14:35;18.50;99.90
19359;DHT22;9815;52.334;20.890;2023-08-30T15:17:06;18.40;99.90
19359;DHT22;9815;52.334;20.890;2023-08-30T15:19:36;18.30;99.90
19359;DHT22;9815;52.334;20.890;2023-08-30T15:22:04;18.30;99.90
19359;DHT22;9815;52.334;20.890;2023-08-30T15:24:32;18.30;99.90
19359;DHT22;9815;52.334;20.890;2023-08-30T15:27:01;18.20;99.90
19359;DHT22;9815;52.334;20.890;2023-08-30T15:29:29;18.10;99.90
19359;DHT22;9815;52.334;20.890;2023-08-30T15:31:58;18.10;99.90
19359;DHT22;9815;52.334;20.890;2023-08-30T15:34:27;18.10;99.90
19359;DHT22;9815;52.334;20.890;2023-08-30T15:36:57;18.00;99.90
19359;DHT22;9815;52.334;20.890;2023-08-30T15:39:25;18.00;99.90
19359;DHT22;9815;52.334;20.890;2023-08-30T15:41:54;17.90;99.90
19359;DHT22;9815;52.334;20.890;2023-08-30T15:44:24;17.90;99.90
19359;DHT22;9815;52.334;20.890;2023-08-30T15:46:53;17.80;99.90